Flight Track Log - Related Links

Times and Time Zones

All times are in EDT time to prevent confusion due to time zone crossing. See the ASQ4577 flight status page for this flight to view local times or setup timezone preferences in your user account.

Time Position Orientation Groundspeed Altitude Reporting Facility
EDT Latitude Longitude Course Direction KTS MPH feet Rate Location/Type
Mon 08:37:54 PM 42.0167 -87.8167 85° East 195 224 3,400  Level Chicago TRACON
Mon 08:40:00 PM 42.0657 -87.3344 80° East  Level Estimated
Mon 08:40:20 PM 42.0239 -87.6128 87° East 252 290 6,300  Level Chicago Center
Mon 08:41:00 PM 42.0863 -87.1910 90° East  Level Estimated
Mon 08:41:22 PM 42.0406 -87.5111 78° East 277 319 8,400  Level Chicago Center
Mon 08:42:00 PM 42.0933 -87.0454 86° East  Level FlightAware Approximate
Mon 08:43:00 PM 42.1136 -86.9028 85° East  Level Estimated
Mon 08:43:00 PM 42.0639 -87.2767 78° East  Level FlightAware Approximate
Mon 08:43:26 PM 42.0797 -87.2669 85° East 327 376 11,200  Level Chicago Center
Mon 08:45:31 PM 42.1147 -86.9992 80° East 371 427 13,000 995 Climbing Chicago Center
Mon 08:46:33 PM 42.1200 -86.8603 87° East 373 429 14,300 1,258 Climbing Chicago Center
Mon 08:47:35 PM 42.1258 -86.6936 87° East 373 429 15,600 1,065 Climbing Chicago Center
Mon 08:48:37 PM 42.1300 -86.5556 88° East 379 436 16,500 919 Climbing Chicago Center
Mon 08:49:39 PM 42.1350 -86.4117 87° East 385 443 17,500 823 Climbing Chicago Center
Mon 08:50:00 PM 42.1332 -86.2687 85° East  Level FlightAware Approximate
Mon 08:50:41 PM 42.1397 -86.2683 87° East 385 443 18,200  Level Chicago Center
Mon 08:51:43 PM 42.1433 -86.1214 88° East 392 451 19,200 1,065 Climbing Chicago Center
Mon 08:52:45 PM 42.1433 -85.9556 90° East 394 453 20,400 1,065 Climbing Chicago Center
Mon 08:53:47 PM 42.1411 -85.8092 91° East 394 453 21,400 1,016 Climbing Chicago Center
Mon 08:54:49 PM 42.1389 -85.6594 91° East 400 460 22,500 1,008 Climbing Chicago Center
Mon 08:55:52 PM 42.1389 -85.5083 90° East 405 466 23,500 1,104 Climbing Chicago Center
Mon 08:56:54 PM 42.1361 -85.3242 91° East 410 472 24,800 1,113 Climbing Chicago Center
Mon 08:57:56 PM 42.1356 -85.1692 90° East 416 479 25,800 968 Climbing Chicago Center
Mon 08:58:58 PM 42.1347 -85.0169 90° East 413 475 26,800 871 Climbing Chicago Center
Mon 09:00:00 PM 42.1453 -84.8642 85° East 410 472 27,600 823 Climbing Chicago Center
Mon 09:01:02 PM 42.1553 -84.7106 85° East 412 474 28,500 919 Climbing Chicago Center
Mon 09:02:04 PM 42.1675 -84.5281 85° East 410 472 29,500 919 Climbing Chicago Center
Mon 09:03:06 PM 42.1772 -84.3731 85° East 416 479 30,400 849 Climbing Chicago Center
Mon 09:03:50 PM 42.1867 -84.2686 83° East 417 480 31,000 792 Climbing Cleveland Center
Mon 09:04:52 PM 42.2081 -84.1139 79° East 420 483 31,800 823 Climbing Cleveland Center
Mon 09:05:54 PM 42.2272 -83.9569 81° East 424 488 32,700 823 Climbing Cleveland Center
Mon 09:06:56 PM 42.2467 -83.8003 80° East 425 489 33,500 823 Climbing Cleveland Center
Mon 09:07:58 PM 42.2664 -83.6439 80° East 426 490 34,400 732 Climbing Cleveland Center
Mon 09:08:59 PM 42.2906 -83.4456 81° East 431 496 35,000 293 Climbing Cleveland Center
Mon 09:10:01 PM 42.3097 -83.2806 81° East 439 505 35,000  Level Cleveland Center
Mon 09:11:03 PM 42.3314 -83.1056 80° East 449 517 35,000  Level Cleveland Center
Mon 09:12:05 PM 42.3514 -82.9394 81° East 449 517 35,000  Level Cleveland Center
Mon 09:13:07 PM 42.3711 -82.7692 81° East 455 524 35,000  Level Cleveland Center
Mon 09:14:09 PM 42.3906 -82.6006 81° East 456 525 35,000  Level Cleveland Center
Mon 09:15:11 PM 42.4094 -82.4322 81° East 455 524 35,000  Level Cleveland Center
Mon 09:16:13 PM 42.4292 -82.2617 81° East 459 528 35,000  Level Cleveland Center
Mon 09:17:15 PM 42.4508 -82.0589 82° East 453 521 35,000  Level Cleveland Center
Mon 09:18:17 PM 42.4697 -81.8903 81° East 457 526 35,000  Level Cleveland Center
Mon 09:19:18 PM 42.4886 -81.7153 82° East 454 522 35,000  Level Cleveland Center
Mon 09:20:20 PM 42.5072 -81.5439 82° East 455 524 35,000  Level Cleveland Center
Mon 09:21:22 PM 42.5242 -81.3747 82° East 450 518 35,000  Level Cleveland Center
Mon 09:22:24 PM 42.5428 -81.2022 82° East 456 525 35,000  Level Cleveland Center
Mon 09:23:26 PM 42.5589 -81.0317 83° East 453 521 35,000  Level Cleveland Center
Mon 09:24:27 PM 42.5769 -80.8625 82° East 450 518 35,000  Level Cleveland Center
Mon 09:25:29 PM 42.5931 -80.6928 83° East 450 518 35,000  Level Cleveland Center
Mon 09:26:31 PM 42.6106 -80.5233 82° East 450 518 35,000 -484 Level Cleveland Center
Mon 09:27:33 PM 42.6283 -80.3242 83° East 452 520 34,000 -1,220 Descending Cleveland Center
Mon 09:28:34 PM 42.6442 -80.1575 83° East 446 513 32,500 -1,366 Descending Cleveland Center
Mon 09:29:36 PM 42.6603 -79.9914 82° East 442 509 31,200 -726 Descending Cleveland Center
Mon 09:30:38 PM 42.6767 -79.8278 82° East 439 505 31,000 -97 Descending Cleveland Center
Mon 09:31:40 PM 42.6906 -79.6636 83° East 438 504 31,000  Level Cleveland Center
Mon 09:32:41 PM 42.7056 -79.4992 83° East 439 505 31,000  Level Cleveland Center
Mon 09:33:43 PM 42.7197 -79.3333 83° East 443 510 31,000  Level Cleveland Center
Mon 09:34:44 PM 42.7333 -79.1678 84° East 443 510 31,000  Level Cleveland Center
Mon 09:35:46 PM 42.7492 -78.9694 84° East 440 506 31,000  Level Cleveland Center
Mon 09:36:48 PM 42.7636 -78.8028 83° East 442 509 31,000 -293 Level Cleveland Center
Mon 09:37:49 PM 42.7761 -78.6381 84° East 439 505 30,400 -976 Descending Cleveland Center
Mon 09:38:51 PM 42.7886 -78.4758 84° East 431 496 29,000 -1,463 Descending Cleveland Center
Mon 09:39:52 PM 42.8017 -78.3150 84° East 429 494 27,400 -1,659 Descending Cleveland Center
Mon 09:40:54 PM 42.8128 -78.1556 85° East 425 489 25,600 -1,597 Descending Cleveland Center
Mon 09:41:56 PM 42.8250 -77.9919 84° East 432 497 24,100 -1,463 Descending Cleveland Center
Mon 09:42:57 PM 42.8361 -77.8247 85° East 439 505 22,600 -1,415 Descending Cleveland Center
Mon 09:43:59 PM 42.8486 -77.6583 84° East 436 502 21,200 -1,463 Descending Cleveland Center
Mon 09:45:00 PM 42.8606 -77.4992 84° East 421 484 19,600 -1,610 Descending Cleveland Center
Mon 09:46:02 PM 42.8731 -77.3139 85° East 407 468 17,900 -1,355 Descending Cleveland Center
Mon 09:47:04 PM 42.8831 -77.1625 85° East 403 464 16,800 -1,268 Descending Cleveland Center
Mon 09:48:05 PM 42.8986 -77.0181 82° East 389 448 15,300 -1,512 Descending Cleveland Center
Mon 09:49:07 PM 42.9414 -76.8917 65° Northeast 368 423 13,700 -1,707 Descending Cleveland Center
Mon 09:50:08 PM 42.9803 -76.7683 67° East 357 411 11,800 -1,659 Descending Cleveland Center
Mon 09:51:10 PM 43.0175 -76.6561 66° East 295 339 10,300 -2,020 Descending Cleveland Center
Mon 09:51:49 PM 43.0350 -76.6022 66° East 247 284 8,400 -2,940 Descending Boston Center
Mon 09:52:50 PM 43.0678 -76.5047 65° Northeast 254 292 5,400 -2,361 Descending Boston Center
Mon 09:53:51 PM 43.0917 -76.4183 69° East 245 282 3,600 -992 Descending Boston Center
Mon 09:54:51 PM 43.1006 -76.3419 81° East 201 231 3,400 -595 Descending Boston Center
Mon 09:55:52 PM 43.1033 -76.2625 87° East 202 232 2,400 -893 Descending Boston Center
Mon 09:56:52 PM 43.1053 -76.2058 87° East 143 165 1,600 -744 Descending Boston Center
Mon 09:57:53 PM 43.1067 -76.1575 88° East 117 135 900 -689 Descending Boston Center

Login

Don't have an account? Register now (free) for customized features, flight alerts, and more!